Time;durP1;ratioP1;P1;durP2;ratioP2;P2;SDS_P1;SDS_P2;PMS_P1;PMS_P2;Temp;Humidity;BMP_temperature;BMP_pressure;BME280_temperature;BME280_humidity;BME280_pressure;Samples;Min_cycle;Max_cycle;Signal;HPM_P1;HPM_P2
2022/05/18 00:00:18;;;;;;;13.88;8.60;;;;;;;;;;5087329;28;20055;-72
2022/05/18 00:02:44;;;;;;;13.50;8.57;;;;;;;;;;5101272;28;21679;-74
2022/05/18 00:05:11;;;;;;;14.25;8.68;;;;;;;;;;5087265;28;20478;-72
2022/05/18 00:07:38;;;;;;;18.83;10.00;;;;;;;;;;5100719;28;20030;-72
2022/05/18 00:10:05;;;;;;;18.27;9.70;;;;;;;;;;5110751;28;20032;-72
2022/05/18 00:12:32;;;;;;;16.50;9.20;;;;;;;;;;5102966;28;20026;-70
2022/05/18 00:14:58;;;;;;;16.20;10.10;;;;;;;;;;5101545;28;20047;-70
2022/05/18 00:17:25;;;;;;;14.15;10.07;;;;;;;;;;5096005;28;20110;-70
2022/05/18 00:19:52;;;;;;;14.82;10.23;;;;;;;;;;5107397;28;20027;-71
2022/05/18 00:22:18;;;;;;;19.88;10.90;;;;;;;;;;5101928;28;20415;-71
2022/05/18 00:24:45;;;;;;;14.82;10.60;;;;;;;;;;5107761;28;20027;-71
2022/05/18 00:27:12;;;;;;;16.75;12.15;;;;;;;;;;5107411;28;20020;-72
2022/05/18 00:29:38;;;;;;;15.48;11.20;;;;;;;;;;5106984;28;20036;-72
2022/05/18 00:32:05;;;;;;;27.88;14.43;;;;;;;;;;5106532;28;20355;-70
2022/05/18 00:34:32;;;;;;;20.90;15.07;;;;;;;;;;5092183;28;20032;-70
2022/05/18 00:36:59;;;;;;;23.80;15.63;;;;;;;;;;5092017;28;20050;-70
2022/05/18 00:39:25;;;;;;;26.00;18.08;;;;;;;;;;5092186;28;20086;-70
2022/05/18 00:41:52;;;;;;;32.47;19.55;;;;;;;;;;5090671;28;20024;-70
2022/05/18 00:44:19;;;;;;;29.10;20.63;;;;;;;;;;5087079;28;20040;-70
2022/05/18 00:46:45;;;;;;;29.47;21.63;;;;;;;;;;5087407;28;20095;-70
2022/05/18 00:49:12;;;;;;;29.63;21.83;;;;;;;;;;5086778;28;20543;-70
2022/05/18 00:51:44;;;;;;;30.30;22.07;;;;;;;;;;5099097;28;20028;-70
2022/05/18 00:54:16;;;;;;;37.00;21.80;;;;;;;;;;5105661;28;20024;-69
2022/05/18 00:56:42;;;;;;;27.60;21.27;;;;;;;;;;5095010;28;20542;-70
2022/05/18 00:59:14;;;;;;;33.70;21.13;;;;;;;;;;5091689;28;20020;-70
2022/05/18 01:01:41;;;;;;;31.37;20.80;;;;;;;;;;5091742;28;20024;-70
2022/05/18 01:04:08;;;;;;;29.43;19.73;;;;;;;;;;5091558;28;20016;-70
2022/05/18 01:06:38;;;;;;;28.30;19.07;;;;;;;;;;5099292;28;20111;-70
2022/05/18 01:09:06;;;;;;;31.57;20.03;;;;;;;;;;5107410;28;20080;-70
2022/05/18 01:11:34;;;;;;;27.50;18.50;;;;;;;;;;5107397;28;20443;-70
2022/05/18 01:14:01;;;;;;;23.57;16.53;;;;;;;;;;5106192;28;20051;-70
2022/05/18 01:16:29;;;;;;;22.90;15.67;;;;;;;;;;5115212;28;20095;-69
2022/05/18 01:18:56;;;;;;;29.97;15.57;;;;;;;;;;5115660;28;20031;-69
2022/05/18 01:21:27;;;;;;;27.63;15.20;;;;;;;;;;5115845;28;20027;-69
2022/05/18 01:24:04;;;;;;;24.93;17.07;;;;;;;;;;5115663;28;20478;-70
2022/05/18 01:26:31;;;;;;;26.10;15.13;;;;;;;;;;5115358;28;20106;-69
2022/05/18 01:28:58;;;;;;;22.90;16.53;;;;;;;;;;5110519;28;20024;-70
2022/05/18 01:31:43;;;;;;;21.00;14.77;;;;;;;;;;5110736;28;20023;-70
2022/05/18 01:34:10;;;;;;;;;;;;;;;;;;5092224;28;20024;-70
2022/05/18 01:36:36;;;;;;;25.10;14.13;;;;;;;;;;5090008;28;19912;-69
2022/05/18 01:39:04;;;;;;;24.53;14.30;;;;;;;;;;5095210;28;20032;-69
2022/05/18 01:41:33;;;;;;;19.53;14.30;;;;;;;;;;5095152;28;20107;-69
2022/05/18 01:44:00;;;;;;;19.83;14.23;;;;;;;;;;5094806;28;20107;-69
2022/05/18 01:46:28;;;;;;;27.27;14.77;;;;;;;;;;5094911;28;20023;-71
2022/05/18 01:48:55;;;;;;;21.97;15.83;;;;;;;;;;5094469;28;20023;-70
2022/05/18 01:51:30;;;;;;;20.63;15.03;;;;;;;;;;5089981;28;20101;-70
2022/05/18 01:53:57;;;;;;;30.60;15.50;;;;;;;;;;5089604;28;20378;-70
2022/05/18 01:56:24;;;;;;;23.33;15.10;;;;;;;;;;5089741;28;20114;-70
2022/05/18 01:58:51;;;;;;;22.90;15.63;;;;;;;;;;5091330;28;20051;-70
2022/05/18 02:01:17;;;;;;;19.00;14.20;;;;;;;;;;5114960;28;20550;-70
2022/05/18 02:03:44;;;;;;;27.30;15.97;;;;;;;;;;5098624;28;20031;-70
2022/05/18 02:06:11;;;;;;;26.57;15.57;;;;;;;;;;5094527;28;20036;-70
2022/05/18 02:08:38;;;;;;;24.43;15.30;;;;;;;;;;5094650;28;20032;-70
2022/05/18 02:11:04;;;;;;;22.90;14.87;;;;;;;;;;5094358;28;20509;-70
2022/05/18 02:13:31;;;;;;;20.97;14.70;;;;;;;;;;5089481;28;20036;-70
2022/05/18 02:15:58;;;;;;;21.27;14.43;;;;;;;;;;5089373;28;20034;-70
2022/05/18 02:18:25;;;;;;;23.33;16.37;;;;;;;;;;5101625;28;20028;-70
2022/05/18 02:20:51;;;;;;;26.47;16.57;;;;;;;;;;5109653;28;20050;-70
2022/05/18 02:23:18;;;;;;;22.70;15.67;;;;;;;;;;5113651;28;20546;-70
2022/05/18 02:25:45;;;;;;;23.63;15.10;;;;;;;;;;5112884;28;20016;-70
2022/05/18 02:28:11;;;;;;;21.57;14.57;;;;;;;;;;5114288;28;20031;-70
2022/05/18 02:30:38;;;;;;;22.00;14.53;;;;;;;;;;5114554;28;20028;-69
2022/05/18 02:33:05;;;;;;;21.80;15.50;;;;;;;;;;5104597;28;20111;-70
2022/05/18 02:35:32;;;;;;;23.33;15.57;;;;;;;;;;5089785;28;20522;-69
2022/05/18 02:37:58;;;;;;;18.50;14.00;;;;;;;;;;5088567;28;20030;-70
2022/05/18 02:40:25;;;;;;;22.23;14.23;;;;;;;;;;5089083;28;20032;-69
2022/05/18 02:42:52;;;;;;;19.77;14.40;;;;;;;;;;5088883;28;20024;-70
2022/05/18 02:45:18;;;;;;;24.27;13.93;;;;;;;;;;5093554;28;20019;-69
2022/05/18 02:47:45;;;;;;;20.50;14.07;;;;;;;;;;5114052;28;20035;-70
2022/05/18 02:50:12;;;;;;;19.03;14.67;;;;;;;;;;5113795;28;20478;-69
2022/05/18 02:52:39;;;;;;;19.53;14.73;;;;;;;;;;5114170;28;20124;-69
2022/05/18 02:57:51;;;;;;;21.77;13.93;;;;;;;;;;5109958;28;20096;-70
2022/05/18 03:00:18;;;;;;;23.37;15.37;;;;;;;;;;5090352;28;20036;-70
2022/05/18 03:02:45;;;;;;;23.43;16.60;;;;;;;;;;5088308;28;20391;-70
2022/05/18 03:05:12;;;;;;;30.57;15.93;;;;;;;;;;5088559;28;20024;-69
2022/05/18 03:07:38;;;;;;;22.33;15.23;;;;;;;;;;5091155;28;20024;-70
2022/05/18 03:10:05;;;;;;;23.70;18.97;;;;;;;;;;5093207;28;20099;-70
2022/05/18 03:12:32;;;;;;;25.83;20.80;;;;;;;;;;5075163;28;20484;-70
2022/05/18 03:14:59;;;;;;;32.50;22.53;;;;;;;;;;5093220;28;20027;-69
2022/05/18 03:17:25;;;;;;;30.90;23.20;;;;;;;;;;5093046;28;20043;-70
2022/05/18 03:19:52;;;;;;;30.07;23.27;;;;;;;;;;5089797;28;20428;-70
2022/05/18 03:25:05;;;;;;;;;;;;;;;;;;5088546;28;20047;-70
2022/05/18 03:27:32;;;;;;;32.17;23.43;;;;;;;;;;5103013;28;19954;-69
2022/05/18 03:29:59;;;;;;;35.50;23.90;;;;;;;;;;5111411;28;20020;-69
2022/05/18 03:32:25;;;;;;;31.27;23.80;;;;;;;;;;5109038;28;20023;-70
2022/05/18 03:34:52;;;;;;;33.33;23.07;;;;;;;;;;5093013;28;20474;-70
2022/05/18 03:37:19;;;;;;;30.37;21.97;;;;;;;;;;5092308;28;20382;-69
2022/05/18 03:39:46;;;;;;;30.43;23.30;;;;;;;;;;5092537;28;20091;-70
2022/05/18 03:42:13;;;;;;;32.93;24.00;;;;;;;;;;5090013;28;20038;-69
2022/05/18 03:44:39;;;;;;;37.87;26.57;;;;;;;;;;5087815;28;20032;-70
2022/05/18 03:47:06;;;;;;;33.63;24.87;;;;;;;;;;5087782;28;20026;-70
2022/05/18 03:49:33;;;;;;;36.20;25.53;;;;;;;;;;5087627;28;20077;-70
2022/05/18 03:52:00;;;;;;;33.47;24.30;;;;;;;;;;5089892;28;20024;-70
2022/05/18 03:54:27;;;;;;;32.97;24.53;;;;;;;;;;5092456;28;20450;-69
2022/05/18 03:56:54;;;;;;;30.00;23.57;;;;;;;;;;5092440;28;20036;-70
2022/05/18 03:59:21;;;;;;;37.57;27.50;;;;;;;;;;5100809;28;20027;-69
2022/05/18 04:01:47;;;;;;;37.67;25.07;;;;;;;;;;5092393;28;20028;-69
2022/05/18 04:04:14;;;;;;;30.83;24.23;;;;;;;;;;5090410;28;20394;-69
2022/05/18 04:06:41;;;;;;;32.90;24.97;;;;;;;;;;5087459;28;20036;-69
2022/05/18 04:09:07;;;;;;;39.63;26.73;;;;;;;;;;5087470;28;20039;-70
2022/05/18 04:11:34;;;;;;;34.53;26.23;;;;;;;;;;5087280;28;20100;-69
2022/05/18 04:14:01;;;;;;;34.43;25.23;;;;;;;;;;5098230;28;20024;-69
2022/05/18 04:16:27;;;;;;;35.03;24.47;;;;;;;;;;5112196;28;20055;-69
2022/05/18 04:18:54;;;;;;;33.17;23.77;;;;;;;;;;5112872;28;20054;-70
2022/05/18 04:21:21;;;;;;;35.43;24.07;;;;;;;;;;5112863;28;20517;-69
2022/05/18 04:23:49;;;;;;;30.07;23.33;;;;;;;;;;5112563;28;20076;-69
2022/05/18 04:26:16;;;;;;;30.93;22.77;;;;;;;;;;5111145;28;20496;-69
2022/05/18 04:28:43;;;;;;;37.13;24.70;;;;;;;;;;5107605;28;20024;-68
2022/05/18 04:31:09;;;;;;;30.07;22.93;;;;;;;;;;5107870;28;20023;-67
2022/05/18 04:33:36;;;;;;;30.53;22.90;;;;;;;;;;5093581;28;20097;-68
2022/05/18 04:36:03;;;;;;;32.80;23.07;;;;;;;;;;5087623;28;20165;-69
2022/05/18 04:38:32;;;;;;;28.03;19.83;;;;;;;;;;5092177;28;20020;-68
2022/05/18 04:40:59;;;;;;;29.60;20.60;;;;;;;;;;5095683;28;20539;-70
2022/05/18 04:43:25;;;;;;;29.20;19.60;;;;;;;;;;5104212;28;20024;-72
2022/05/18 04:45:55;;;;;;;25.53;20.43;;;;;;;;;;5091846;28;20020;-69
2022/05/18 04:48:24;;;;;;;24.93;18.57;;;;;;;;;;5091352;28;20035;-69
2022/05/18 04:50:51;;;;;;;23.43;15.53;;;;;;;;;;5090139;28;20024;-70
2022/05/18 04:53:18;;;;;;;23.97;14.13;;;;;;;;;;5090531;28;20103;-70
2022/05/18 04:55:45;;;;;;;18.37;11.70;;;;;;;;;;5090398;28;20102;-69
2022/05/18 04:58:12;;;;;;;18.23;13.77;;;;;;;;;;5090591;28;20062;-69
2022/05/18 05:00:40;;;;;;;14.23;10.83;;;;;;;;;;5095713;28;20057;-70
2022/05/18 05:03:06;;;;;;;20.33;12.20;;;;;;;;;;5095327;28;20024;-70
2022/05/18 05:05:33;;;;;;;16.03;11.30;;;;;;;;;;5095670;28;20095;-70
2022/05/18 05:08:00;;;;;;;14.97;10.77;;;;;;;;;;5095053;28;20026;-69
2022/05/18 05:10:27;;;;;;;14.10;10.90;;;;;;;;;;5099847;28;20073;-69
2022/05/18 05:12:54;;;;;;;21.53;10.83;;;;;;;;;;5110676;28;20436;-69
2022/05/18 05:15:20;;;;;;;17.83;12.53;;;;;;;;;;5110779;28;20550;-69
2022/05/18 05:17:47;;;;;;;16.33;11.43;;;;;;;;;;5110596;28;20035;-69
2022/05/18 05:20:14;;;;;;;14.37;10.17;;;;;;;;;;5110278;28;20505;-69
2022/05/18 05:22:41;;;;;;;17.47;11.57;;;;;;;;;;5115435;28;20022;-69
2022/05/18 05:25:08;;;;;;;14.60;10.30;;;;;;;;;;5115148;28;20020;-69
2022/05/18 05:27:35;;;;;;;17.17;12.03;;;;;;;;;;5115580;28;20050;-69
2022/05/18 05:30:02;;;;;;;17.23;13.17;;;;;;;;;;5115626;28;20039;-69
2022/05/18 05:32:28;;;;;;;18.20;12.40;;;;;;;;;;5115463;28;20055;-69
2022/05/18 05:34:55;;;;;;;18.07;11.63;;;;;;;;;;5110384;28;20422;-70
2022/05/18 05:37:22;;;;;;;20.70;12.83;;;;;;;;;;5110113;28;20032;-70
2022/05/18 05:39:48;;;;;;;15.90;11.13;;;;;;;;;;5106917;28;20028;-70
2022/05/18 05:42:15;;;;;;;19.40;12.67;;;;;;;;;;5089377;28;20020;-69
2022/05/18 05:44:42;;;;;;;17.93;11.43;;;;;;;;;;5093647;28;20020;-69
2022/05/18 05:47:11;;;;;;;21.10;12.50;;;;;;;;;;5094775;28;20021;-69
2022/05/18 05:49:39;;;;;;;18.07;12.93;;;;;;;;;;5094809;28;20028;-69
2022/05/18 05:52:07;;;;;;;18.80;12.93;;;;;;;;;;5094837;28;20023;-69
2022/05/18 05:54:34;;;;;;;15.60;11.67;;;;;;;;;;5094442;28;20034;-69
2022/05/18 05:57:04;;;;;;;16.37;12.47;;;;;;;;;;5090078;28;20394;-69
2022/05/18 05:59:34;;;;;;;16.47;10.97;;;;;;;;;;5088776;28;20044;-69
2022/05/18 06:02:03;;;;;;;15.53;10.60;;;;;;;;;;5089166;28;20435;-70
2022/05/18 06:04:31;;;;;;;16.83;11.93;;;;;;;;;;5089258;28;20020;-69
2022/05/18 06:06:58;;;;;;;17.37;11.77;;;;;;;;;;5093247;28;20035;-69
2022/05/18 06:09:25;;;;;;;18.83;12.07;;;;;;;;;;5094244;28;20027;-70
2022/05/18 06:11:52;;;;;;;17.87;12.13;;;;;;;;;;5114715;28;20076;-69
2022/05/18 06:14:19;;;;;;;16.43;10.93;;;;;;;;;;5114295;28;20024;-69
2022/05/18 06:16:49;;;;;;;19.17;12.87;;;;;;;;;;5114616;28;20498;-69
2022/05/18 06:19:16;;;;;;;19.47;12.73;;;;;;;;;;5109977;28;20387;-69
2022/05/18 06:21:43;;;;;;;20.37;12.37;;;;;;;;;;5109117;28;20042;-69
2022/05/18 06:24:10;;;;;;;16.63;10.90;;;;;;;;;;5109301;28;20030;-69
2022/05/18 06:26:37;;;;;;;17.07;12.00;;;;;;;;;;5109125;28;20084;-69
2022/05/18 06:29:04;;;;;;;18.90;12.60;;;;;;;;;;5112462;28;20026;-68
2022/05/18 06:31:31;;;;;;;16.40;12.07;;;;;;;;;;5113921;28;20031;-69
2022/05/18 06:33:59;;;;;;;17.47;11.77;;;;;;;;;;5114369;28;20378;-69
2022/05/18 06:36:26;;;;;;;18.67;11.90;;;;;;;;;;5114297;28;20067;-69
2022/05/18 06:38:52;;;;;;;20.17;13.17;;;;;;;;;;5113015;28;20382;-69
2022/05/18 06:41:22;;;;;;;18.90;12.80;;;;;;;;;;5090283;28;20065;-68
2022/05/18 06:43:50;;;;;;;18.93;13.23;;;;;;;;;;5088473;28;20020;-69
2022/05/18 06:46:17;;;;;;;17.83;12.50;;;;;;;;;;5088273;28;20027;-69
2022/05/18 06:48:44;;;;;;;16.13;11.80;;;;;;;;;;5088119;28;20020;-69
2022/05/18 06:51:11;;;;;;;15.77;11.53;;;;;;;;;;5072753;28;20028;-69
2022/05/18 06:53:38;;;;;;;16.30;12.17;;;;;;;;;;5093648;28;20012;-69
2022/05/18 06:56:05;;;;;;;19.43;12.20;;;;;;;;;;5093414;28;20024;-69
2022/05/18 06:58:32;;;;;;;18.33;12.40;;;;;;;;;;5093435;28;20592;-69
2022/05/18 07:01:01;;;;;;;18.63;12.30;;;;;;;;;;5093315;28;20027;-69
2022/05/18 07:03:28;;;;;;;22.60;13.77;;;;;;;;;;5089643;28;20386;-69
2022/05/18 07:05:55;;;;;;;19.33;14.00;;;;;;;;;;5088118;28;20044;-69
2022/05/18 07:08:21;;;;;;;19.77;13.77;;;;;;;;;;5087958;28;20847;-69
2022/05/18 07:10:48;;;;;;;25.80;13.40;;;;;;;;;;5106115;28;20028;-69
2022/05/18 07:13:17;;;;;;;18.90;12.63;;;;;;;;;;5110240;28;20015;-69
2022/05/18 07:15:44;;;;;;;24.33;13.03;;;;;;;;;;5113419;28;20031;-69
2022/05/18 07:18:11;;;;;;;17.87;12.17;;;;;;;;;;5113837;28;20377;-69
2022/05/18 07:20:38;;;;;;;19.53;13.37;;;;;;;;;;5113073;28;20023;-69
2022/05/18 07:23:04;;;;;;;20.50;13.63;;;;;;;;;;5113319;28;20099;-69
2022/05/18 07:25:31;;;;;;;20.83;13.67;;;;;;;;;;5110622;28;20028;-69
2022/05/18 07:27:58;;;;;;;22.00;14.63;;;;;;;;;;5108038;28;20043;-69
2022/05/18 07:30:25;;;;;;;21.30;13.73;;;;;;;;;;5107987;28;20124;-69
2022/05/18 07:32:51;;;;;;;20.80;13.80;;;;;;;;;;5107865;28;20024;-69
2022/05/18 07:35:18;;;;;;;20.97;14.23;;;;;;;;;;5109792;28;20027;-69
2022/05/18 07:37:45;;;;;;;20.17;14.43;;;;;;;;;;5112464;28;20089;-69
2022/05/18 07:40:12;;;;;;;17.90;13.30;;;;;;;;;;5095733;28;20024;-69
2022/05/18 07:42:38;;;;;;;21.77;13.23;;;;;;;;;;5092599;28;20028;-69
2022/05/18 07:45:06;;;;;;;18.00;12.47;;;;;;;;;;5092848;28;20044;-69
2022/05/18 07:47:33;;;;;;;19.20;13.37;;;;;;;;;;5090632;28;20028;-69
2022/05/18 07:50:00;;;;;;;19.17;14.30;;;;;;;;;;5087290;28;20460;-69
2022/05/18 07:52:26;;;;;;;23.97;15.47;;;;;;;;;;5087341;28;20079;-69
2022/05/18 07:54:53;;;;;;;20.83;15.27;;;;;;;;;;5087087;28;20458;-69
2022/05/18 07:57:20;;;;;;;18.97;13.47;;;;;;;;;;5088161;28;20046;-69
2022/05/18 07:59:47;;;;;;;21.73;15.03;;;;;;;;;;5092457;28;20090;-69
2022/05/18 08:02:13;;;;;;;22.93;16.70;;;;;;;;;;5092497;28;20035;-69
2022/05/18 08:04:40;;;;;;;26.63;15.33;;;;;;;;;;5092377;28;20016;-69
2022/05/18 08:07:07;;;;;;;20.17;14.47;;;;;;;;;;5092420;28;20024;-68
2022/05/18 08:15:05;;;;;;;21.90;13.17;;;;;;;;;;5106618;28;20583;-70
2022/05/18 08:15:05;;;;;;;24.10;14.25;;;;;;;;;;5086966;28;20097;-69
2022/05/18 08:17:32;;;;;;;26.03;15.70;;;;;;;;;;5086805;28;20028;-68
2022/05/18 08:20:00;;;;;;;22.73;16.70;;;;;;;;;;5088915;28;20348;-68
2022/05/18 08:22:27;;;;;;;23.03;15.40;;;;;;;;;;5092045;28;20028;-68
2022/05/18 08:24:54;;;;;;;23.13;15.97;;;;;;;;;;5095129;28;20032;-69
2022/05/18 08:27:21;;;;;;;23.00;15.07;;;;;;;;;;5097435;28;20028;-69
2022/05/18 08:29:47;;;;;;;23.87;15.23;;;;;;;;;;5096108;28;20485;-69
2022/05/18 08:32:14;;;;;;;19.47;14.77;;;;;;;;;;5094172;28;20031;-69
2022/05/18 08:34:41;;;;;;;24.53;15.63;;;;;;;;;;5091110;28;20025;-69
2022/05/18 08:37:07;;;;;;;22.33;13.70;;;;;;;;;;5090814;28;20028;-69
2022/05/18 08:39:34;;;;;;;23.27;14.73;;;;;;;;;;5096197;28;20490;-69
2022/05/18 08:42:01;;;;;;;19.33;14.47;;;;;;;;;;5112419;28;20050;-69
2022/05/18 08:44:32;;;;;;;21.37;14.67;;;;;;;;;;5116541;28;20024;-68
2022/05/18 08:47:17;;;;;;;22.73;14.90;;;;;;;;;;5116254;28;20466;-68
2022/05/18 08:49:56;;;;;;;22.38;14.23;;;;;;;;;;5116487;28;20542;-69
2022/05/18 08:52:29;;;;;;;22.87;15.80;;;;;;;;;;5116172;28;20477;-69
2022/05/18 08:55:16;;;;;;;20.87;14.73;;;;;;;;;;5105853;28;20549;-69
2022/05/18 08:57:44;;;;;;;22.23;14.80;;;;;;;;;;5090287;28;20080;-68
2022/05/18 09:00:22;;;;;;;23.70;16.17;;;;;;;;;;5090151;28;20020;-69
2022/05/18 09:02:54;;;;;;;25.23;15.93;;;;;;;;;;5090263;28;20035;-69
2022/05/18 09:05:33;;;;;;;25.10;16.20;;;;;;;;;;5093790;28;20101;-69
2022/05/18 09:08:00;;;;;;;19.97;14.57;;;;;;;;;;5095661;28;20024;-68
2022/05/18 09:10:30;;;;;;;19.30;13.67;;;;;;;;;;5095375;28;20441;-69
2022/05/18 09:12:57;;;;;;;22.57;14.67;;;;;;;;;;5095658;28;20421;-69
2022/05/18 09:15:42;;;;;;;22.50;15.17;;;;;;;;;;5095544;28;20030;-68
2022/05/18 09:18:18;;;;;;;19.38;12.55;;;;;;;;;;5090471;28;20506;-69
2022/05/18 09:20:49;;;;;;;20.70;15.10;;;;;;;;;;5090024;28;20109;-69
2022/05/18 09:23:28;;;;;;;21.33;14.77;;;;;;;;;;5090017;28;20032;-69
2022/05/18 09:26:02;;;;;;;20.13;14.67;;;;;;;;;;5089842;28;20518;-68
2022/05/18 09:28:32;;;;;;;18.88;13.32;;;;;;;;;;5095104;28;20027;-68
2022/05/18 09:31:01;;;;;;;29.23;14.77;;;;;;;;;;5094704;28;20103;-68
2022/05/18 09:33:37;;;;;;;20.27;14.50;;;;;;;;;;5095213;28;20106;-68
2022/05/18 09:36:13;;;;;;;18.40;13.90;;;;;;;;;;5094457;28;20035;-69
2022/05/18 09:38:59;;;;;;;19.37;13.17;;;;;;;;;;5093827;28;20497;-68
2022/05/18 09:41:28;;;;;;;23.77;14.40;;;;;;;;;;5089454;28;20024;-69
2022/05/18 09:43:55;;;;;;;17.60;12.33;;;;;;;;;;5093847;28;20019;-68
2022/05/18 09:46:23;;;;;;;16.13;11.93;;;;;;;;;;5109633;28;20035;-69
2022/05/18 09:48:56;;;;;;;18.90;12.37;;;;;;;;;;5110738;28;20050;-68
2022/05/18 09:51:23;;;;;;;20.00;11.57;;;;;;;;;;5115211;28;20019;-68
2022/05/18 09:53:50;;;;;;;21.17;12.67;;;;;;;;;;5114517;28;20023;-68
2022/05/18 09:56:20;;;;;;;19.87;13.50;;;;;;;;;;5115113;28;20478;-68
2022/05/18 09:58:48;;;;;;;25.60;16.10;;;;;;;;;;5115133;28;20029;-68
2022/05/18 10:09:41;;;;;;;23.77;14.20;;;;;;;;;;5089242;28;20047;-68
2022/05/18 10:12:16;;;;;;;22.13;13.47;;;;;;;;;;5091672;28;20024;-68
2022/05/18 10:14:47;;;;;;;24.07;16.73;;;;;;;;;;5094347;28;20471;-68
2022/05/18 10:17:14;;;;;;;26.43;16.07;;;;;;;;;;5083695;28;20412;-68
2022/05/18 10:19:46;;;;;;;23.70;15.63;;;;;;;;;;5114643;28;20702;-69
2022/05/18 10:22:18;;;;;;;22.57;15.37;;;;;;;;;;5114652;28;20027;-69
2022/05/18 10:24:56;;;;;;;21.33;14.17;;;;;;;;;;5110629;28;20023;-68
2022/05/18 10:27:24;;;;;;;26.43;16.37;;;;;;;;;;5109103;28;20024;-69
2022/05/18 10:30:03;;;;;;;23.97;16.77;;;;;;;;;;5109062;28;20020;-68
2022/05/18 10:32:31;;;;;;;25.07;16.73;;;;;;;;;;5108982;28;20027;-68
2022/05/18 10:34:59;;;;;;;28.53;17.77;;;;;;;;;;5112802;28;20043;-68
2022/05/18 10:37:29;;;;;;;25.77;16.77;;;;;;;;;;5114524;28;20040;-68
2022/05/18 10:40:01;;;;;;;20.90;14.80;;;;;;;;;;5114324;28;20019;-68
2022/05/18 10:42:29;;;;;;;21.57;14.43;;;;;;;;;;5114099;28;20015;-68
2022/05/18 10:44:58;;;;;;;30.20;16.07;;;;;;;;;;5105654;28;20066;-68
2022/05/18 10:47:27;;;;;;;25.73;14.97;;;;;;;;;;5087627;28;20502;-68
2022/05/18 10:50:09;;;;;;;21.30;14.30;;;;;;;;;;5103589;28;20482;-69
2022/05/18 10:52:36;;;;;;;26.57;17.17;;;;;;;;;;5108695;28;20031;-68
2022/05/18 10:55:06;;;;;;;20.97;14.07;;;;;;;;;;5108601;28;20108;-68
2022/05/18 10:57:35;;;;;;;23.93;16.83;;;;;;;;;;5113405;28;20035;-68
2022/05/18 11:00:06;;;;;;;25.23;14.93;;;;;;;;;;5113453;28;20027;-68
2022/05/18 11:02:51;;;;;;;18.33;12.73;;;;;;;;;;5113509;28;20031;-68
2022/05/18 11:05:30;;;;;;;21.33;12.95;;;;;;;;;;5113827;28;20020;-69
2022/05/18 11:07:56;;;;;;;20.93;12.70;;;;;;;;;;5112813;28;20507;-68
2022/05/18 11:10:24;;;;;;;19.00;12.43;;;;;;;;;;5108308;28;20103;-68
2022/05/18 11:13:08;;;;;;;20.87;14.17;;;;;;;;;;5108241;28;20028;-69
2022/05/18 11:15:44;;;;;;;19.80;13.30;;;;;;;;;;5108264;28;20375;-68
2022/05/18 11:18:30;;;;;;;25.47;16.90;;;;;;;;;;5088493;28;20479;-68
2022/05/18 11:21:05;;;;;;;23.77;15.48;;;;;;;;;;5093055;28;20020;-68
2022/05/18 11:23:42;;;;;;;22.40;14.93;;;;;;;;;;5093065;28;20482;-68
2022/05/18 11:26:16;;;;;;;25.90;14.90;;;;;;;;;;5092936;28;20020;-68
2022/05/18 11:28:50;;;;;;;25.60;14.88;;;;;;;;;;5093050;28;20024;-68
2022/05/18 11:31:20;;;;;;;27.10;14.60;;;;;;;;;;5089943;28;20016;-68
2022/05/18 11:33:49;;;;;;;20.70;13.07;;;;;;;;;;5087606;28;20024;-68
2022/05/18 11:36:42;;;;;;;21.63;15.43;;;;;;;;;;5087471;28;20611;-68
2022/05/18 11:39:12;;;;;;;24.17;13.93;;;;;;;;;;5049047;28;20080;-68
2022/05/18 11:41:47;;;;;;;22.43;13.73;;;;;;;;;;5091102;28;20077;-68
2022/05/18 11:44:17;;;;;;;22.55;15.32;;;;;;;;;;5092734;28;20109;-68
2022/05/18 11:47:13;;;;;;;27.20;16.73;;;;;;;;;;5103360;28;20031;-68
2022/05/18 11:50:03;;;;;;;24.83;16.58;;;;;;;;;;5091476;28;20100;-68
2022/05/18 11:52:29;;;;;;;24.20;17.00;;;;;;;;;;5111775;28;20351;-68
2022/05/18 11:55:15;;;;;;;27.27;16.20;;;;;;;;;;5107354;28;20441;-68
2022/05/18 11:57:41;;;;;;;28.73;14.70;;;;;;;;;;5107350;28;20035;-68
2022/05/18 12:00:15;;;;;;;23.83;14.23;;;;;;;;;;5107560;28;20023;-68
2022/05/18 12:02:55;;;;;;;24.10;16.42;;;;;;;;;;5107682;28;20260;-68
2022/05/18 12:05:34;;;;;;;19.20;14.63;;;;;;;;;;5112766;28;20073;-68
2022/05/18 12:08:00;;;;;;;27.33;14.63;;;;;;;;;;5112762;28;20244;-68
2022/05/18 12:10:29;;;;;;;26.80;16.17;;;;;;;;;;5112752;28;20260;-68
2022/05/18 12:13:05;;;;;;;22.93;14.73;;;;;;;;;;5112128;28;20264;-68
2022/05/18 12:15:32;;;;;;;21.10;14.03;;;;;;;;;;5108260;28;20268;-68
2022/05/18 12:18:01;;;;;;;24.33;13.80;;;;;;;;;;5107360;28;20295;-68
2022/05/18 12:20:40;;;;;;;26.83;17.23;;;;;;;;;;5107393;28;20785;-68
2022/05/18 12:23:09;;;;;;;41.73;16.40;;;;;;;;;;5107413;28;20263;-68
2022/05/18 12:25:36;;;;;;;25.47;15.73;;;;;;;;;;5109411;28;20264;-68
2022/05/18 12:28:04;;;;;;;28.37;17.50;;;;;;;;;;5112404;28;20576;-68
2022/05/18 12:30:33;;;;;;;24.07;14.57;;;;;;;;;;5112105;28;20027;-68
2022/05/18 12:33:01;;;;;;;24.20;15.50;;;;;;;;;;5112361;28;20650;-69
2022/05/18 12:35:54;;;;;;;32.37;17.87;;;;;;;;;;5112348;28;20920;-68
2022/05/18 12:38:27;;;;;;;32.30;16.77;;;;;;;;;;5070193;28;20315;-69
2022/05/18 12:41:03;;;;;;;28.47;16.87;;;;;;;;;;5107269;28;20654;-69
2022/05/18 12:43:52;;;;;;;27.50;18.10;;;;;;;;;;5107164;28;20255;-68
2022/05/18 12:46:24;;;;;;;27.13;17.57;;;;;;;;;;5082035;28;20778;-68
2022/05/18 12:48:55;;;;;;;31.93;19.70;;;;;;;;;;5091178;28;20263;-68
2022/05/18 12:51:30;;;;;;;26.23;18.83;;;;;;;;;;5092185;28;20104;-68
2022/05/18 12:54:14;;;;;;;28.67;18.88;;;;;;;;;;5091843;28;20277;-69
2022/05/18 12:56:42;;;;;;;35.37;21.27;;;;;;;;;;5091869;28;20028;-68
2022/05/18 12:59:10;;;;;;;37.03;20.27;;;;;;;;;;5091401;28;20252;-69
2022/05/18 13:01:39;;;;;;;33.77;18.27;;;;;;;;;;5086688;28;20457;-69
2022/05/18 13:04:09;;;;;;;30.13;18.90;;;;;;;;;;5086409;28;20012;-69
2022/05/18 13:06:40;;;;;;;25.03;17.70;;;;;;;;;;5086193;28;20070;-69
2022/05/18 13:09:23;;;;;;;30.53;18.60;;;;;;;;;;5087668;28;20028;-69
2022/05/18 13:11:54;;;;;;;35.17;20.87;;;;;;;;;;5095385;28;20111;-69
2022/05/18 13:14:53;;;;;;;31.90;21.07;;;;;;;;;;5095574;28;20032;-69
2022/05/18 13:17:20;;;;;;;31.80;19.63;;;;;;;;;;5040299;28;20044;-69
2022/05/18 13:19:49;;;;;;;34.77;19.80;;;;;;;;;;5095287;28;20095;-69
2022/05/18 13:22:15;;;;;;;34.47;19.77;;;;;;;;;;5092778;28;20562;-69
2022/05/18 13:24:47;;;;;;;35.57;21.60;;;;;;;;;;5089821;28;20050;-69
2022/05/18 13:27:19;;;;;;;38.43;19.67;;;;;;;;;;5089889;28;20051;-69
2022/05/18 13:29:47;;;;;;;39.10;23.33;;;;;;;;;;5089842;28;20028;-69
2022/05/18 13:32:16;;;;;;;37.20;23.17;;;;;;;;;;5091895;28;20020;-69
2022/05/18 13:35:12;;;;;;;37.60;23.30;;;;;;;;;;5095080;28;20086;-69
2022/05/18 13:37:38;;;;;;;;;;;;;;;;;;5075839;28;20040;-69
2022/05/18 13:40:05;;;;;;;39.00;23.17;;;;;;;;;;5095156;28;19951;-69
2022/05/18 13:42:33;;;;;;;38.87;22.43;;;;;;;;;;5094980;28;20409;-69
2022/05/18 13:45:18;;;;;;;44.13;24.13;;;;;;;;;;5090795;28;20036;-70
2022/05/18 13:47:49;;;;;;;36.67;22.65;;;;;;;;;;5089778;28;20375;-70
2022/05/18 13:50:28;;;;;;;49.43;26.83;;;;;;;;;;5089588;28;20024;-70
2022/05/18 13:52:58;;;;;;;43.67;27.60;;;;;;;;;;5089370;28;20048;-70
2022/05/18 13:55:25;;;;;;;51.57;26.37;;;;;;;;;;5093183;28;20035;-70
2022/05/18 13:57:54;;;;;;;41.57;24.60;;;;;;;;;;5094286;28;20497;-70
2022/05/18 14:00:37;;;;;;;49.50;26.73;;;;;;;;;;5094657;28;20023;-70
2022/05/18 14:03:04;;;;;;;42.27;26.33;;;;;;;;;;5094403;28;20036;-70
2022/05/18 14:05:35;;;;;;;45.07;23.70;;;;;;;;;;5098882;28;20058;-70
2022/05/18 14:08:03;;;;;;;45.47;25.57;;;;;;;;;;5108832;28;20027;-70
2022/05/18 14:10:30;;;;;;;36.90;23.10;;;;;;;;;;5109287;28;20019;-70
2022/05/18 14:12:58;;;;;;;39.83;25.77;;;;;;;;;;5109108;28;20427;-70
2022/05/18 14:15:28;;;;;;;38.07;25.37;;;;;;;;;;5109275;28;20024;-69
2022/05/18 14:17:55;;;;;;;38.53;24.23;;;;;;;;;;5114015;28;20037;-70
2022/05/18 14:20:35;;;;;;;37.30;24.10;;;;;;;;;;5114505;28;20024;-70
2022/05/18 14:23:03;;;;;;;33.80;22.10;;;;;;;;;;5114630;28;20016;-70
2022/05/18 14:25:37;;;;;;;29.73;21.73;;;;;;;;;;5114611;28;20015;-70
2022/05/18 14:28:10;;;;;;;28.77;21.52;;;;;;;;;;5113978;28;20016;-70
2022/05/18 14:30:38;;;;;;;31.57;21.80;;;;;;;;;;5108937;28;20076;-70
2022/05/18 14:33:26;;;;;;;35.43;21.33;;;;;;;;;;5108430;28;20034;-70
2022/05/18 14:35:53;;;;;;;34.03;23.03;;;;;;;;;;5099399;28;20048;-70
2022/05/18 14:38:25;;;;;;;34.23;24.73;;;;;;;;;;5088967;28;20082;-70
2022/05/18 14:40:53;;;;;;;31.03;23.23;;;;;;;;;;5093885;28;20024;-70
2022/05/18 14:43:24;;;;;;;31.93;21.43;;;;;;;;;;5093370;28;20108;-70
2022/05/18 14:45:54;;;;;;;37.03;23.43;;;;;;;;;;5093516;28;20481;-69
2022/05/18 14:48:29;;;;;;;34.27;22.07;;;;;;;;;;5093824;28;20351;-70